createdAt,value
2019-05-19T00:02:26.900Z,4.42
2019-05-19T00:04:58.215Z,4.60
2019-05-19T00:07:29.654Z,3.80
2019-05-19T00:10:01.287Z,4.03
2019-05-19T00:12:32.738Z,4.62
2019-05-19T00:15:05.415Z,4.15
2019-05-19T00:17:38.008Z,4.67
2019-05-19T00:20:09.562Z,4.50
2019-05-19T00:22:41.256Z,4.55
2019-05-19T00:25:12.668Z,4.33
2019-05-19T00:27:46.958Z,4.50
2019-05-19T00:30:18.418Z,4.73
2019-05-19T00:32:49.918Z,4.10
2019-05-19T00:35:21.242Z,4.45
2019-05-19T00:37:52.653Z,4.05
2019-05-19T00:40:24.114Z,4.22
2019-05-19T00:42:55.550Z,4.10
2019-05-19T00:45:27.143Z,4.08
2019-05-19T00:47:58.505Z,3.80
2019-05-19T00:50:29.952Z,3.87
2019-05-19T00:53:01.538Z,3.90
2019-05-19T00:55:32.953Z,4.20
2019-05-19T00:58:05.258Z,3.75
2019-05-19T01:00:36.661Z,3.85
2019-05-19T01:03:07.917Z,4.47
2019-05-19T01:05:39.171Z,3.75
2019-05-19T01:08:10.450Z,4.10
2019-05-19T01:10:41.978Z,3.50
2019-05-19T01:13:13.408Z,3.83
2019-05-19T01:15:44.779Z,3.70
2019-05-19T01:18:16.074Z,3.30
2019-05-19T01:20:47.783Z,3.37
2019-05-19T01:23:19.178Z,3.20
2019-05-19T01:25:50.409Z,3.80
2019-05-19T01:28:21.873Z,4.05
2019-05-19T01:30:53.330Z,3.50
2019-05-19T01:33:24.630Z,3.47
2019-05-19T01:35:55.869Z,3.52
2019-05-19T01:38:27.249Z,3.60
2019-05-19T01:40:58.587Z,3.72
2019-05-19T01:43:30.044Z,3.50
2019-05-19T01:46:01.288Z,3.52
2019-05-19T01:48:32.842Z,3.70
2019-05-19T01:51:04.168Z,3.40
2019-05-19T01:53:35.464Z,3.02
2019-05-19T01:56:07.130Z,3.60
2019-05-19T01:58:38.530Z,3.62
2019-05-19T02:01:10.192Z,3.20
2019-05-19T02:03:41.631Z,3.50
2019-05-19T02:06:12.963Z,3.30
2019-05-19T02:08:44.321Z,3.10
2019-05-19T02:11:15.772Z,3.47
2019-05-19T02:13:47.071Z,3.67
2019-05-19T02:16:18.531Z,3.47
2019-05-19T02:18:50.043Z,3.37
2019-05-19T02:21:21.257Z,3.67
2019-05-19T02:23:53.720Z,3.33
2019-05-19T02:26:25.857Z,3.70
2019-05-19T02:28:57.269Z,3.30
2019-05-19T02:31:28.511Z,3.50
2019-05-19T02:34:00.196Z,3.00
2019-05-19T02:36:31.597Z,3.33
2019-05-19T02:39:03.888Z,3.05
2019-05-19T02:41:37.463Z,3.35
2019-05-19T02:44:09.870Z,3.22
2019-05-19T02:46:41.629Z,2.90
2019-05-19T02:49:13.502Z,3.12
2019-05-19T02:51:47.137Z,3.02
2019-05-19T02:54:20.063Z,3.52
2019-05-19T02:56:52.174Z,3.12
2019-05-19T02:59:24.925Z,3.10
2019-05-19T03:02:03.848Z,3.35
2019-05-19T03:04:35.361Z,2.62
2019-05-19T03:07:06.753Z,3.10
2019-05-19T03:09:38.122Z,3.20
2019-05-19T03:12:09.435Z,2.90
2019-05-19T03:14:40.931Z,3.00
2019-05-19T03:17:12.373Z,2.87
2019-05-19T03:19:43.877Z,2.98
2019-05-19T03:22:15.262Z,3.00
2019-05-19T03:24:46.628Z,2.75
2019-05-19T03:27:17.880Z,3.00
2019-05-19T03:29:51.680Z,3.00
2019-05-19T03:32:27.536Z,2.87
2019-05-19T03:34:59.917Z,2.87
2019-05-19T03:37:31.355Z,3.10
2019-05-19T03:40:04.371Z,2.90
2019-05-19T03:42:35.589Z,3.15
2019-05-19T03:45:07.099Z,3.10
2019-05-19T03:47:38.276Z,2.77
2019-05-19T03:50:09.571Z,2.90
2019-05-19T03:52:40.949Z,2.95
2019-05-19T03:55:12.547Z,3.37
2019-05-19T03:57:43.769Z,3.02
2019-05-19T04:00:15.860Z,2.70
2019-05-19T04:02:47.747Z,3.08
2019-05-19T04:05:19.259Z,2.98
2019-05-19T04:07:50.521Z,2.52
2019-05-19T04:10:22.012Z,2.72
2019-05-19T04:12:53.420Z,2.52
2019-05-19T04:15:24.889Z,2.40
2019-05-19T04:17:56.168Z,2.77
2019-05-19T04:20:28.491Z,2.62
2019-05-19T04:22:59.830Z,3.05
2019-05-19T04:25:31.189Z,3.20
2019-05-19T04:28:02.628Z,2.65
2019-05-19T04:30:34.268Z,3.30
2019-05-19T04:33:06.220Z,2.75
2019-05-19T04:35:37.512Z,2.50
2019-05-19T04:38:08.747Z,3.08
2019-05-19T04:40:40.127Z,2.85
2019-05-19T04:43:11.459Z,2.55
2019-05-19T04:45:42.727Z,2.60
2019-05-19T04:48:14.065Z,2.70
2019-05-19T04:50:45.619Z,2.80
2019-05-19T04:53:16.833Z,3.05
2019-05-19T04:55:48.201Z,2.55
2019-05-19T04:58:19.474Z,3.27
2019-05-19T05:00:50.880Z,2.30
2019-05-19T05:03:22.339Z,2.60
2019-05-19T05:05:53.643Z,2.50
2019-05-19T05:08:30.223Z,3.00
2019-05-19T05:10:58.143Z,2.80
2019-05-19T05:13:29.513Z,2.25
2019-05-19T05:16:00.894Z,2.77
2019-05-19T05:18:32.364Z,2.65
2019-05-19T05:21:03.805Z,2.75
2019-05-19T05:23:35.362Z,3.10
2019-05-19T05:26:06.973Z,4.65
2019-05-19T05:28:38.389Z,2.87
2019-05-19T05:31:09.777Z,3.00
2019-05-19T05:33:41.173Z,3.12
2019-05-19T05:36:12.592Z,2.67
2019-05-19T05:38:43.919Z,2.70
2019-05-19T05:41:15.251Z,2.70
2019-05-19T05:43:46.507Z,2.83
2019-05-19T05:46:17.859Z,2.92
2019-05-19T05:48:49.398Z,2.72
2019-05-19T05:51:20.688Z,2.70
2019-05-19T05:53:51.940Z,2.47
2019-05-19T05:56:23.294Z,2.55
2019-05-19T05:58:54.623Z,2.55
2019-05-19T06:01:25.914Z,2.40
2019-05-19T06:03:57.231Z,2.60
2019-05-19T06:06:28.535Z,2.70
2019-05-19T06:08:59.845Z,2.02
2019-05-19T06:11:31.243Z,2.90
2019-05-19T06:14:02.778Z,2.50
2019-05-19T06:16:34.274Z,2.25
2019-05-19T06:19:05.593Z,2.52
2019-05-19T06:21:36.988Z,2.80
2019-05-19T06:24:08.339Z,2.37
2019-05-19T06:26:39.676Z,2.80
2019-05-19T06:29:10.996Z,2.30
2019-05-19T06:31:42.344Z,2.65
2019-05-19T06:34:13.793Z,2.20
2019-05-19T06:36:45.140Z,2.58
2019-05-19T06:39:16.407Z,2.72
2019-05-19T06:41:47.799Z,2.92
2019-05-19T06:44:19.056Z,2.30
2019-05-19T06:46:52.050Z,2.17
2019-05-19T06:49:23.423Z,2.30
2019-05-19T06:51:54.777Z,2.70
2019-05-19T06:54:26.156Z,2.92
2019-05-19T06:56:57.468Z,2.42
2019-05-19T06:59:28.711Z,2.72
2019-05-19T07:02:00.100Z,2.77
2019-05-19T07:04:32.896Z,2.40
2019-05-19T07:07:04.263Z,3.00
2019-05-19T07:09:36.789Z,2.60
2019-05-19T07:12:08.445Z,2.70
2019-05-19T07:14:39.732Z,2.83
2019-05-19T07:17:11.043Z,2.58
2019-05-19T07:19:42.403Z,2.40
2019-05-19T07:22:13.735Z,2.67
2019-05-19T07:24:45.177Z,2.58
2019-05-19T07:27:16.439Z,2.45
2019-05-19T07:29:47.747Z,2.55
2019-05-19T07:32:19.096Z,2.75
2019-05-19T07:34:52.209Z,2.98
2019-05-19T07:37:23.623Z,2.50
2019-05-19T07:39:54.833Z,3.00
2019-05-19T07:42:27.200Z,3.20
2019-05-19T07:44:58.539Z,3.20
2019-05-19T07:47:29.832Z,2.75
2019-05-19T07:50:01.434Z,2.70
2019-05-19T07:52:33.895Z,3.25
2019-05-19T07:55:08.100Z,3.27
2019-05-19T07:57:39.393Z,3.03
2019-05-19T08:00:12.203Z,2.80
2019-05-19T08:02:43.565Z,2.80
2019-05-19T08:05:15.243Z,2.50
2019-05-19T08:07:46.635Z,2.75
2019-05-19T08:10:17.954Z,2.58
2019-05-19T08:12:49.308Z,3.00
2019-05-19T08:15:20.547Z,2.47
2019-05-19T08:17:51.873Z,3.08
2019-05-19T08:20:23.188Z,2.80
2019-05-19T08:22:54.520Z,2.67
2019-05-19T08:25:27.301Z,2.60
2019-05-19T08:28:07.323Z,2.72
2019-05-19T08:30:31.876Z,2.60
2019-05-19T08:33:03.348Z,2.50
2019-05-19T08:35:34.693Z,2.30
2019-05-19T08:38:06.041Z,2.30
2019-05-19T08:40:37.312Z,3.20
2019-05-19T08:43:08.615Z,2.90
2019-05-19T08:45:39.952Z,3.85
2019-05-19T08:48:11.412Z,2.90
2019-05-19T08:50:42.651Z,2.52
2019-05-19T08:53:14.118Z,2.80
2019-05-19T08:55:45.429Z,2.70
2019-05-19T08:58:16.797Z,2.17
2019-05-19T09:00:48.099Z,2.80
2019-05-19T09:03:19.376Z,3.02
2019-05-19T09:05:50.688Z,3.00
2019-05-19T09:08:21.976Z,3.10
2019-05-19T09:10:54.695Z,2.70
2019-05-19T09:13:25.944Z,2.40
2019-05-19T09:15:57.231Z,2.62
2019-05-19T09:18:28.565Z,3.60
2019-05-19T09:20:59.843Z,2.87
2019-05-19T09:23:31.197Z,2.77
2019-05-19T09:26:02.414Z,3.62
2019-05-19T09:28:33.969Z,3.20
2019-05-19T09:31:05.419Z,2.67
2019-05-19T09:33:36.742Z,2.80
2019-05-19T09:36:08.243Z,2.70
2019-05-19T09:38:39.511Z,2.55
2019-05-19T09:41:10.875Z,2.80
2019-05-19T09:43:42.248Z,2.55
2019-05-19T09:46:14.055Z,2.45
2019-05-19T09:48:46.566Z,2.72
2019-05-19T09:51:17.883Z,2.50
2019-05-19T09:53:49.290Z,2.45
2019-05-19T09:56:20.665Z,2.80
2019-05-19T09:58:52.061Z,2.83
2019-05-19T10:01:23.355Z,2.47
2019-05-19T10:03:54.864Z,2.20
2019-05-19T10:06:26.019Z,2.42
2019-05-19T10:08:59.221Z,2.33
2019-05-19T10:11:44.347Z,2.47
2019-05-19T10:16:50.540Z,2.55
2019-05-19T10:19:21.867Z,2.98
2019-05-19T10:21:53.372Z,2.90
2019-05-19T10:24:24.668Z,2.22
2019-05-19T10:26:55.983Z,3.42
2019-05-19T10:29:27.285Z,2.50
2019-05-19T10:31:58.515Z,2.35
2019-05-19T10:34:30.051Z,2.15
2019-05-19T10:37:01.589Z,2.72
2019-05-19T10:39:32.947Z,2.80
2019-05-19T10:42:04.350Z,2.58
2019-05-19T10:44:35.663Z,2.00
2019-05-19T10:47:06.971Z,2.58
2019-05-19T10:49:38.229Z,2.45
2019-05-19T10:52:09.445Z,3.17
2019-05-19T10:54:40.790Z,3.08
2019-05-19T10:57:13.049Z,2.27
2019-05-19T10:59:44.456Z,2.45
2019-05-19T11:02:15.763Z,2.70
2019-05-19T11:04:47.036Z,2.30
2019-05-19T11:07:18.320Z,2.50
2019-05-19T11:09:49.930Z,2.40
2019-05-19T11:12:22.414Z,2.15
2019-05-19T11:14:53.699Z,2.30
2019-05-19T11:17:25.198Z,2.25
2019-05-19T11:19:56.528Z,2.15
2019-05-19T11:22:27.880Z,2.20
2019-05-19T11:24:59.267Z,2.30
2019-05-19T11:27:30.590Z,2.52
2019-05-19T11:30:01.953Z,2.47
2019-05-19T11:32:33.374Z,2.60
2019-05-19T11:35:06.573Z,2.50
2019-05-19T11:37:37.797Z,2.10
2019-05-19T11:40:09.248Z,2.67
2019-05-19T11:42:40.561Z,2.08
2019-05-19T11:45:12.929Z,2.15
2019-05-19T11:47:44.218Z,2.15
2019-05-19T11:50:15.611Z,2.10
2019-05-19T11:52:46.923Z,2.15
2019-05-19T11:55:18.227Z,2.20
2019-05-19T11:57:49.487Z,2.55
2019-05-19T12:00:22.259Z,2.08
2019-05-19T12:02:53.563Z,1.62
2019-05-19T12:05:25.071Z,2.67
2019-05-19T12:07:56.497Z,2.33
2019-05-19T12:10:27.835Z,2.70
2019-05-19T12:12:59.444Z,2.15
2019-05-19T12:15:30.894Z,2.30
2019-05-19T12:18:02.377Z,2.40
2019-05-19T12:20:33.706Z,4.17
2019-05-19T12:23:05.315Z,2.90
2019-05-19T12:25:36.790Z,2.40
2019-05-19T12:28:08.054Z,2.10
2019-05-19T12:30:39.395Z,1.98
2019-05-19T12:33:10.687Z,2.20
2019-05-19T12:35:41.996Z,2.33
2019-05-19T12:38:13.301Z,2.10
2019-05-19T12:40:44.602Z,1.98
2019-05-19T12:43:16.032Z,1.90
2019-05-19T12:45:47.606Z,1.67
2019-05-19T12:48:19.110Z,2.20
2019-05-19T12:50:50.461Z,3.20
2019-05-19T12:53:21.852Z,2.05
2019-05-19T12:55:53.258Z,2.05
2019-05-19T12:58:24.609Z,1.82
2019-05-19T13:00:55.957Z,2.70
2019-05-19T13:03:27.195Z,2.50
2019-05-19T13:05:58.537Z,2.80
2019-05-19T13:08:30.019Z,2.10
2019-05-19T13:11:02.394Z,2.45
2019-05-19T13:13:33.674Z,2.20
2019-05-19T13:16:05.508Z,2.22
2019-05-19T13:18:36.899Z,2.62
2019-05-19T13:21:08.322Z,1.92
2019-05-19T13:23:39.552Z,3.45
2019-05-19T13:26:11.035Z,2.02
2019-05-19T13:28:42.306Z,2.65
2019-05-19T13:31:13.613Z,2.27
2019-05-19T13:33:45.016Z,1.90
2019-05-19T13:36:16.410Z,2.10
2019-05-19T13:38:47.662Z,1.65
2019-05-19T13:41:18.988Z,1.80
2019-05-19T13:43:50.307Z,1.98
2019-05-19T13:46:21.702Z,2.10
2019-05-19T13:48:52.947Z,3.20
2019-05-19T13:51:24.274Z,3.40
2019-05-19T13:53:56.075Z,2.10
2019-05-19T13:56:27.319Z,2.10
2019-05-19T13:58:58.618Z,1.90
2019-05-19T14:01:29.941Z,1.80
2019-05-19T14:04:01.244Z,1.80
2019-05-19T14:06:32.697Z,2.37
2019-05-19T14:09:05.121Z,2.47
2019-05-19T14:11:36.584Z,2.08
2019-05-19T14:14:07.830Z,2.00
2019-05-19T14:16:39.220Z,1.90
2019-05-19T14:19:10.589Z,4.25
2019-05-19T14:21:41.845Z,2.35
2019-05-19T14:24:13.063Z,1.85
2019-05-19T14:26:44.392Z,2.10
2019-05-19T14:29:15.624Z,2.90
2019-05-19T14:31:46.903Z,3.52
2019-05-19T14:34:18.186Z,2.00
2019-05-19T14:36:49.599Z,2.40
2019-05-19T14:39:20.952Z,2.90
2019-05-19T14:41:54.010Z,2.58
2019-05-19T14:44:25.326Z,2.65
2019-05-19T14:46:56.606Z,2.12
2019-05-19T14:49:29.503Z,3.02
2019-05-19T14:52:00.929Z,2.30
2019-05-19T14:54:32.249Z,2.00
2019-05-19T14:57:03.524Z,2.15
2019-05-19T14:59:34.927Z,2.33
2019-05-19T15:02:06.344Z,2.22
2019-05-19T15:04:37.692Z,2.00
2019-05-19T15:07:09.010Z,2.22
2019-05-19T15:09:40.234Z,1.77
2019-05-19T15:12:11.540Z,2.77
2019-05-19T15:14:42.801Z,2.85
2019-05-19T15:17:14.092Z,2.20
2019-05-19T15:19:46.394Z,2.90
2019-05-19T15:22:17.671Z,2.85
2019-05-19T15:24:49.159Z,2.60
2019-05-19T15:27:20.371Z,2.30
2019-05-19T15:29:51.607Z,2.08
2019-05-19T15:32:22.865Z,3.02
2019-05-19T15:34:54.162Z,2.60
2019-05-19T15:37:25.518Z,2.75
2019-05-19T15:39:57.655Z,3.05
2019-05-19T15:42:28.976Z,3.80
2019-05-19T15:45:00.273Z,3.42
2019-05-19T15:47:31.553Z,2.60
2019-05-19T15:50:02.851Z,3.08
2019-05-19T15:52:34.184Z,3.45
2019-05-19T15:55:06.798Z,2.80
2019-05-19T15:57:38.269Z,2.40
2019-05-19T16:00:10.129Z,2.47
2019-05-19T16:02:41.505Z,2.80
2019-05-19T16:05:13.128Z,2.40
2019-05-19T16:07:44.458Z,3.27
2019-05-19T16:10:17.328Z,3.45
2019-05-19T16:12:48.660Z,3.62
2019-05-19T16:15:20.129Z,3.30
2019-05-19T16:17:51.594Z,3.08
2019-05-19T16:20:22.907Z,3.52
2019-05-19T16:22:54.164Z,2.75
2019-05-19T16:25:25.411Z,3.30
2019-05-19T16:27:56.731Z,3.58
2019-05-19T16:30:28.166Z,5.47
2019-05-19T16:32:59.550Z,6.47
2019-05-19T16:35:31.037Z,6.15
2019-05-19T16:38:02.429Z,7.30
2019-05-19T16:40:33.810Z,5.75
2019-05-19T16:43:05.267Z,5.42
2019-05-19T16:45:36.701Z,5.35
2019-05-19T16:48:08.237Z,4.45
2019-05-19T16:50:40.821Z,5.72
2019-05-19T16:53:12.408Z,4.40
2019-05-19T16:55:44.173Z,5.05
2019-05-19T16:58:21.097Z,4.47
2019-05-19T17:00:49.401Z,5.15
2019-05-19T17:03:20.873Z,4.20
2019-05-19T17:05:52.309Z,5.47
2019-05-19T17:08:23.599Z,6.12
2019-05-19T17:10:55.236Z,4.47
2019-05-19T17:13:26.606Z,4.65
2019-05-19T17:15:57.926Z,5.03
2019-05-19T17:18:29.309Z,5.58
2019-05-19T17:21:00.724Z,5.10
2019-05-19T17:23:32.142Z,4.35
2019-05-19T17:26:03.555Z,6.60
2019-05-19T17:28:35.006Z,6.33
2019-05-19T17:31:07.767Z,5.58
2019-05-19T17:33:40.495Z,6.00
2019-05-19T17:36:12.609Z,5.03
2019-05-19T17:38:44.006Z,5.28
2019-05-19T17:41:15.538Z,5.05
2019-05-19T17:43:47.904Z,5.50
2019-05-19T17:46:19.151Z,7.72
2019-05-19T17:48:50.889Z,7.65
2019-05-19T17:51:22.330Z,7.97
2019-05-19T17:53:55.262Z,9.35
2019-05-19T17:56:27.467Z,11.20
2019-05-19T17:58:59.505Z,10.68
2019-05-19T18:01:30.918Z,10.48
2019-05-19T18:04:02.387Z,8.43
2019-05-19T18:06:33.822Z,8.23
2019-05-19T18:09:05.914Z,9.50
2019-05-19T18:11:38.461Z,8.30
2019-05-19T18:14:10.799Z,8.83
2019-05-19T18:16:42.161Z,21.55
2019-05-19T18:19:13.575Z,11.38
2019-05-19T18:21:45.036Z,9.60
2019-05-19T18:24:16.388Z,10.40
2019-05-19T18:26:47.614Z,9.58
2019-05-19T18:29:30.489Z,6.40
2019-05-19T18:31:52.204Z,6.35
2019-05-19T18:34:23.784Z,5.17
2019-05-19T18:36:55.153Z,7.85
2019-05-19T18:39:26.629Z,8.30
2019-05-19T18:41:59.577Z,9.18
2019-05-19T18:44:31.289Z,8.83
2019-05-19T18:47:02.636Z,8.48
2019-05-19T18:49:34.032Z,4.53
2019-05-19T18:52:05.460Z,9.45
2019-05-19T18:54:36.973Z,9.33
2019-05-19T18:57:08.399Z,14.43
2019-05-19T18:59:47.323Z,8.63
2019-05-19T19:02:14.806Z,9.45
2019-05-19T19:04:46.221Z,5.72
2019-05-19T19:07:17.543Z,4.53
2019-05-19T19:09:48.976Z,3.55
2019-05-19T19:12:21.942Z,4.05
2019-05-19T19:14:53.327Z,4.58
2019-05-19T19:17:24.580Z,4.33
2019-05-19T19:19:55.957Z,3.55
2019-05-19T19:22:28.753Z,4.03
2019-05-19T19:25:00.255Z,3.90
2019-05-19T19:27:31.847Z,3.98
2019-05-19T19:30:04.206Z,3.70
2019-05-19T19:32:35.785Z,3.50
2019-05-19T19:35:08.660Z,2.80
2019-05-19T19:37:39.940Z,2.95
2019-05-19T19:40:13.099Z,3.37
2019-05-19T19:42:44.523Z,3.25
2019-05-19T19:45:15.862Z,3.10
2019-05-19T19:47:47.107Z,3.27
2019-05-19T19:50:18.433Z,4.35
2019-05-19T19:52:49.837Z,3.47
2019-05-19T19:55:21.121Z,3.30
2019-05-19T19:57:52.402Z,3.87
2019-05-19T20:00:38.239Z,3.62
2019-05-19T20:03:09.654Z,3.83
2019-05-19T20:05:45.144Z,3.50
2019-05-19T20:08:17.534Z,3.83
2019-05-19T20:10:48.987Z,3.87
2019-05-19T20:13:20.377Z,3.77
2019-05-19T20:15:51.771Z,4.12
2019-05-19T20:18:23.055Z,3.60
2019-05-19T20:20:54.441Z,3.90
2019-05-19T20:23:25.931Z,3.47
2019-05-19T20:25:57.190Z,3.83
2019-05-19T20:28:28.562Z,3.70
2019-05-19T20:30:59.875Z,4.30
2019-05-19T20:33:31.356Z,4.17
2019-05-19T20:36:03.717Z,4.30
2019-05-19T20:38:35.204Z,4.03
2019-05-19T20:41:06.772Z,4.28
2019-05-19T20:43:38.094Z,4.67
2019-05-19T20:46:09.503Z,4.20
2019-05-19T20:48:40.930Z,4.33
2019-05-19T20:51:12.324Z,4.53
2019-05-19T20:53:43.646Z,6.35
2019-05-19T20:56:15.018Z,5.62
2019-05-19T20:58:46.442Z,5.30
2019-05-19T21:01:17.899Z,8.10
2019-05-19T21:03:49.329Z,4.70
2019-05-19T21:06:20.794Z,4.28
2019-05-19T21:08:52.063Z,4.67
2019-05-19T21:11:23.388Z,4.33
2019-05-19T21:13:54.636Z,4.33
2019-05-19T21:16:25.950Z,4.78
2019-05-19T21:19:10.814Z,4.47
2019-05-19T21:21:42.138Z,4.00
2019-05-19T21:24:13.449Z,4.67
2019-05-19T21:26:44.819Z,4.83
2019-05-19T21:29:17.210Z,4.10
2019-05-19T21:31:48.491Z,4.08
2019-05-19T21:34:19.781Z,4.25
2019-05-19T21:36:51.080Z,4.00
2019-05-19T21:39:22.458Z,4.22
2019-05-19T21:41:53.710Z,3.55
2019-05-19T21:44:25.122Z,3.87
2019-05-19T21:46:56.491Z,3.90
2019-05-19T21:49:27.636Z,3.47
2019-05-19T21:51:58.944Z,3.67
2019-05-19T21:54:30.271Z,5.17
2019-05-19T21:57:01.740Z,4.03
2019-05-19T21:59:33.020Z,3.72
2019-05-19T22:02:05.591Z,3.75
2019-05-19T22:04:36.990Z,3.80
2019-05-19T22:07:12.952Z,3.65
2019-05-19T22:09:44.151Z,3.37
2019-05-19T22:12:15.432Z,3.67
2019-05-19T22:14:46.761Z,3.22
2019-05-19T22:17:18.186Z,3.15
2019-05-19T22:19:49.411Z,3.20
2019-05-19T22:22:20.785Z,3.25
2019-05-19T22:24:52.096Z,3.10
2019-05-19T22:27:23.385Z,3.02
2019-05-19T22:29:54.721Z,3.00
2019-05-19T22:32:26.171Z,3.70
2019-05-19T22:34:57.645Z,3.17
2019-05-19T22:37:29.176Z,3.25
2019-05-19T22:40:00.595Z,3.08
2019-05-19T22:42:31.961Z,3.47
2019-05-19T22:45:04.036Z,2.90
2019-05-19T22:47:35.405Z,3.15
2019-05-19T22:50:08.350Z,3.20
2019-05-19T22:52:39.645Z,3.25
2019-05-19T22:55:10.840Z,2.80
2019-05-19T22:57:42.149Z,2.85
2019-05-19T23:00:14.920Z,2.67
2019-05-19T23:02:48.176Z,2.80
2019-05-19T23:05:19.500Z,3.20
2019-05-19T23:07:50.818Z,3.05
2019-05-19T23:10:22.329Z,2.98
2019-05-19T23:12:53.626Z,3.83
2019-05-19T23:15:25.077Z,3.17
2019-05-19T23:17:56.406Z,3.42
2019-05-19T23:20:27.628Z,3.70
2019-05-19T23:22:58.895Z,2.92
2019-05-19T23:25:30.283Z,3.55
2019-05-19T23:28:01.640Z,3.27
2019-05-19T23:30:32.923Z,3.40
2019-05-19T23:33:04.441Z,3.30
2019-05-19T23:35:35.711Z,3.55
2019-05-19T23:38:07.063Z,3.60
2019-05-19T23:40:38.294Z,2.87
2019-05-19T23:43:09.795Z,3.10
2019-05-19T23:45:40.991Z,3.33
2019-05-19T23:48:12.348Z,3.17
2019-05-19T23:50:44.551Z,3.05
2019-05-19T23:53:15.839Z,3.10
2019-05-19T23:55:47.117Z,3.27
2019-05-19T23:58:18.423Z,3.50
